createdAt,value
2022-09-14T00:05:53.071Z,11.96
2022-09-14T00:08:21.287Z,11.98
2022-09-14T00:10:49.455Z,11.99
2022-09-14T00:17:26.051Z,11.97
2022-09-14T00:21:09.567Z,11.96
2022-09-14T00:23:39.995Z,11.94
2022-09-14T00:26:14.890Z,11.93
2022-09-14T00:28:46.667Z,11.92
2022-09-14T00:31:16.228Z,11.92
2022-09-14T00:33:47.764Z,11.91
2022-09-14T00:36:23.018Z,11.90
2022-09-14T00:38:51.857Z,11.89
2022-09-14T00:41:27.381Z,11.88
2022-09-14T00:43:57.865Z,11.86
2022-09-14T00:46:28.490Z,11.83
2022-09-14T00:49:00.171Z,11.82
2022-09-14T00:51:31.947Z,11.81
2022-09-14T00:54:04.334Z,11.82
2022-09-14T00:56:32.633Z,11.79
2022-09-14T01:03:07.557Z,11.72
2022-09-14T01:05:57.115Z,11.69
2022-09-14T01:09:40.745Z,11.68
2022-09-14T01:12:14.586Z,11.64
2022-09-14T01:15:25.888Z,11.62
2022-09-14T01:18:03.511Z,11.62
2022-09-14T01:20:34.531Z,11.60
2022-09-14T01:23:10.097Z,11.57
2022-09-14T01:25:56.907Z,11.56
2022-09-14T01:29:02.023Z,11.52
2022-09-14T01:31:48.846Z,11.52
2022-09-14T01:34:17.118Z,11.50
2022-09-14T01:36:51.885Z,11.50
2022-09-14T01:47:41.251Z,11.47
2022-09-14T01:50:45.397Z,11.48
2022-09-14T01:53:27.420Z,11.47
2022-09-14T01:56:09.038Z,11.48
2022-09-14T01:59:11.554Z,11.47
2022-09-14T02:02:02.973Z,11.47
2022-09-14T02:04:43.654Z,11.48
2022-09-14T02:08:26.882Z,11.49
2022-09-14T02:10:55.890Z,11.48
2022-09-14T02:13:25.442Z,11.47
2022-09-14T02:15:54.156Z,11.35
2022-09-14T02:18:22.678Z,11.48
2022-09-14T02:20:57.082Z,11.50
2022-09-14T02:23:25.775Z,11.51
2022-09-14T02:25:54.602Z,11.51
2022-09-14T02:32:41.726Z,11.53
2022-09-14T02:35:49.246Z,11.52
2022-09-14T02:38:34.576Z,11.51
2022-09-14T02:41:12.219Z,11.50
2022-09-14T02:44:24.868Z,11.39
2022-09-14T02:47:08.189Z,11.49
2022-09-14T02:49:58.086Z,11.48
2022-09-14T02:56:33.092Z,11.44
2022-09-14T02:59:26.406Z,11.43
2022-09-14T03:01:55.993Z,11.42
2022-09-14T03:04:48.711Z,11.31
2022-09-14T03:07:16.857Z,11.42
2022-09-14T03:09:45.028Z,11.43
2022-09-14T03:12:13.205Z,11.44
2022-09-14T03:14:41.513Z,11.45
2022-09-14T03:21:18.335Z,11.49
2022-09-14T03:28:00.114Z,11.48
2022-09-14T03:30:29.344Z,11.47
2022-09-14T03:32:59.066Z,11.45
2022-09-14T03:35:31.704Z,11.45
2022-09-14T03:38:00.136Z,11.45
2022-09-14T03:41:44.736Z,11.45
2022-09-14T03:44:13.008Z,11.43
2022-09-14T03:47:31.945Z,11.41
2022-09-14T03:50:00.126Z,11.38
2022-09-14T03:52:28.369Z,11.37
2022-09-14T03:54:56.519Z,11.37
2022-09-14T03:57:24.739Z,11.38
2022-09-14T03:59:52.919Z,11.40
2022-09-14T04:02:21.196Z,11.43
2022-09-14T04:05:16.866Z,11.43
2022-09-14T04:07:48.091Z,11.35
2022-09-14T04:10:42.288Z,11.46
2022-09-14T04:13:10.328Z,11.48
2022-09-14T04:15:38.399Z,11.50
2022-09-14T04:18:06.644Z,11.50
2022-09-14T04:20:35.516Z,11.52
2022-09-14T04:23:03.644Z,11.53
2022-09-14T04:25:31.811Z,11.55
2022-09-14T04:28:19.205Z,11.56
2022-09-14T04:31:02.541Z,11.58
2022-09-14T04:33:33.026Z,11.54
2022-09-14T04:36:06.962Z,11.60
2022-09-14T04:38:36.382Z,11.61
2022-09-14T04:41:07.725Z,11.63
2022-09-14T04:43:36.483Z,11.65
2022-09-14T04:46:12.102Z,11.64
2022-09-14T04:48:40.518Z,11.63
2022-09-14T04:51:13.906Z,11.66
2022-09-14T04:53:42.450Z,11.66
2022-09-14T04:56:12.329Z,11.65
2022-09-14T04:58:46.252Z,11.56
2022-09-14T05:01:21.409Z,11.66
2022-09-14T05:03:50.845Z,11.68
2022-09-14T05:06:22.123Z,11.72
2022-09-14T05:08:51.240Z,11.74
2022-09-14T05:11:22.942Z,11.74
2022-09-14T05:13:51.844Z,11.74
2022-09-14T05:16:48.169Z,11.75
2022-09-14T05:19:18.390Z,11.79
2022-09-14T05:21:48.385Z,11.81
2022-09-14T05:24:18.846Z,11.84
2022-09-14T05:26:47.592Z,11.87
2022-09-14T05:29:18.272Z,11.90
2022-09-14T05:31:47.033Z,11.93
2022-09-14T05:34:16.987Z,11.98
2022-09-14T05:36:45.393Z,11.93
2022-09-14T05:39:13.678Z,12.05
2022-09-14T05:42:58.005Z,12.09
2022-09-14T05:45:26.302Z,12.11
2022-09-14T05:47:54.637Z,12.11
2022-09-14T05:50:23.433Z,12.14
2022-09-14T05:52:51.725Z,12.16
2022-09-14T05:55:19.876Z,12.19
2022-09-14T05:57:51.991Z,12.23
2022-09-14T06:00:21.715Z,12.26
2022-09-14T06:02:51.696Z,12.29
2022-09-14T06:05:21.759Z,12.32
2022-09-14T06:07:53.384Z,12.35
2022-09-14T06:10:22.317Z,12.39
2022-09-14T06:12:55.265Z,12.45
2022-09-14T06:15:49.273Z,12.50
2022-09-14T06:18:17.564Z,12.56
2022-09-14T06:20:52.673Z,12.60
2022-09-14T06:23:20.833Z,12.63
2022-09-14T06:25:49.122Z,12.66
2022-09-14T06:28:24.771Z,12.61
2022-09-14T06:30:53.046Z,12.76
2022-09-14T06:33:21.576Z,12.74
2022-09-14T06:36:40.105Z,12.91
2022-09-14T06:39:09.028Z,13.03
2022-09-14T06:41:37.321Z,13.09
2022-09-14T06:44:05.868Z,13.14
2022-09-14T06:46:35.585Z,13.17
2022-09-14T06:49:08.092Z,13.21
2022-09-14T06:51:38.903Z,13.25
2022-09-14T06:54:08.172Z,13.29
2022-09-14T06:56:39.300Z,13.34
2022-09-14T06:59:33.115Z,13.40
2022-09-14T07:02:01.307Z,13.47
2022-09-14T07:04:30.244Z,13.53
2022-09-14T07:06:58.436Z,13.58
2022-09-14T07:09:26.692Z,13.67
2022-09-14T07:11:55.032Z,13.79
2022-09-14T07:14:23.475Z,13.91
2022-09-14T07:16:51.692Z,14.00
2022-09-14T07:19:20.022Z,14.04
2022-09-14T07:21:50.032Z,14.18
2022-09-14T07:24:18.305Z,14.12
2022-09-14T07:26:47.803Z,14.26
2022-09-14T07:29:18.767Z,14.19
2022-09-14T07:31:54.615Z,14.33
2022-09-14T07:34:24.121Z,14.40
2022-09-14T07:36:52.399Z,14.43
2022-09-14T07:39:20.625Z,14.48
2022-09-14T07:41:49.180Z,14.52
2022-09-14T07:44:18.330Z,14.55
2022-09-14T07:46:47.494Z,14.60
2022-09-14T07:49:17.229Z,14.65
2022-09-14T07:51:46.289Z,14.72
2022-09-14T07:54:17.254Z,14.79
2022-09-14T07:56:46.327Z,14.88
2022-09-14T07:59:35.149Z,14.97
2022-09-14T08:02:04.955Z,15.06
2022-09-14T08:04:36.050Z,15.12
2022-09-14T08:07:04.953Z,15.18
2022-09-14T08:09:33.477Z,15.22
2022-09-14T08:12:01.797Z,15.23
2022-09-14T08:14:30.097Z,15.24
2022-09-14T08:16:59.363Z,15.29
2022-09-14T08:19:27.589Z,15.37
2022-09-14T08:21:55.685Z,15.41
2022-09-14T08:24:23.941Z,15.50
2022-09-14T08:26:52.105Z,15.61
2022-09-14T08:29:20.186Z,15.64
2022-09-14T08:31:51.796Z,15.65
2022-09-14T08:34:21.058Z,15.60
2022-09-14T08:36:49.485Z,15.73
2022-09-14T08:39:18.087Z,15.80
2022-09-14T08:41:49.558Z,15.92
2022-09-14T08:44:30.549Z,16.18
2022-09-14T08:47:03.025Z,16.47
2022-09-14T08:49:46.081Z,16.72
2022-09-14T08:52:24.601Z,17.00
2022-09-14T08:54:59.095Z,17.20
2022-09-14T08:57:50.226Z,17.44
2022-09-14T09:00:23.659Z,17.76
2022-09-14T09:03:09.557Z,18.07
2022-09-14T09:05:54.831Z,18.47
2022-09-14T09:08:37.198Z,18.80
2022-09-14T09:11:12.162Z,18.71
2022-09-14T09:13:41.315Z,18.52
2022-09-14T09:16:11.153Z,18.46
2022-09-14T09:19:02.921Z,18.22
2022-09-14T09:21:35.722Z,18.10
2022-09-14T09:24:22.109Z,18.37
2022-09-14T09:26:50.645Z,18.24
2022-09-14T09:29:19.290Z,18.38
2022-09-14T09:32:11.290Z,18.75
2022-09-14T09:34:51.945Z,19.19
2022-09-14T09:37:37.756Z,18.95
2022-09-14T09:40:20.126Z,19.18
2022-09-14T09:43:09.221Z,19.71
2022-09-14T09:45:52.731Z,19.71
2022-09-14T09:48:39.231Z,19.54
2022-09-14T09:51:23.567Z,19.22
2022-09-14T09:54:21.240Z,19.04
2022-09-14T09:56:54.976Z,19.13
2022-09-14T09:59:35.555Z,19.08
2022-09-14T10:02:30.111Z,19.45
2022-09-14T10:05:03.091Z,19.99
2022-09-14T10:07:34.792Z,19.77
2022-09-14T10:10:09.775Z,19.43
2022-09-14T10:12:40.251Z,19.09
2022-09-14T10:15:22.246Z,18.91
2022-09-14T10:18:03.715Z,18.89
2022-09-14T10:20:32.267Z,18.80
2022-09-14T10:23:23.779Z,18.62
2022-09-14T10:25:54.415Z,18.54
2022-09-14T10:28:32.146Z,18.57
2022-09-14T10:31:09.276Z,18.64
2022-09-14T10:33:38.052Z,18.93
2022-09-14T10:36:11.498Z,18.95
2022-09-14T10:38:47.106Z,18.98
2022-09-14T10:41:25.119Z,18.73
2022-09-14T10:44:30.774Z,18.53
2022-09-14T10:47:16.462Z,18.25
2022-09-14T10:50:23.018Z,18.02
2022-09-14T10:53:07.058Z,17.90
2022-09-14T10:55:54.038Z,17.73
2022-09-14T10:58:34.006Z,17.40
2022-09-14T11:01:36.963Z,17.59
2022-09-14T11:04:05.118Z,17.56
2022-09-14T11:06:42.610Z,17.44
2022-09-14T11:09:28.770Z,17.43
2022-09-14T11:12:19.046Z,17.51
2022-09-14T11:15:19.298Z,17.54
2022-09-14T11:18:06.181Z,17.86
2022-09-14T11:21:03.709Z,18.07
2022-09-14T11:23:56.077Z,18.09
2022-09-14T11:26:42.159Z,18.91
2022-09-14T11:29:19.244Z,19.84
2022-09-14T11:32:20.827Z,20.46
2022-09-14T11:34:56.307Z,20.81
2022-09-14T11:37:31.449Z,20.96
2022-09-14T11:40:10.456Z,21.78
2022-09-14T11:43:01.065Z,22.23
2022-09-14T11:45:37.589Z,21.84
2022-09-14T11:48:41.804Z,21.31
2022-09-14T11:51:27.393Z,21.02
2022-09-14T11:53:55.720Z,20.69
2022-09-14T11:56:31.310Z,20.42
2022-09-14T11:59:03.833Z,20.49
2022-09-14T12:01:41.853Z,21.01
2022-09-14T12:04:17.913Z,20.94
2022-09-14T12:06:51.934Z,20.55
2022-09-14T12:10:19.387Z,20.46
2022-09-14T12:13:08.672Z,20.28
2022-09-14T12:15:38.230Z,20.14
2022-09-14T12:18:06.628Z,19.99
2022-09-14T12:20:37.637Z,19.64
2022-09-14T12:23:23.601Z,19.51
2022-09-14T12:26:06.936Z,19.39
2022-09-14T12:28:36.192Z,19.31
2022-09-14T12:31:06.179Z,19.28
2022-09-14T12:33:34.419Z,19.33
2022-09-14T12:36:12.373Z,19.63
2022-09-14T12:39:01.948Z,20.47
2022-09-14T12:41:36.164Z,20.58
2022-09-14T12:44:25.112Z,20.96
2022-09-14T12:46:53.303Z,20.75
2022-09-14T12:49:30.843Z,20.51
2022-09-14T12:52:04.845Z,20.12
2022-09-14T12:54:43.101Z,19.67
2022-09-14T12:57:19.938Z,19.13
2022-09-14T13:00:09.342Z,18.92
2022-09-14T13:03:06.456Z,18.66
2022-09-14T13:05:35.972Z,18.42
2022-09-14T13:08:12.868Z,18.29
2022-09-14T13:10:49.168Z,18.15
2022-09-14T13:13:24.432Z,17.97
2022-09-14T13:15:56.229Z,17.80
2022-09-14T13:18:34.161Z,17.69
2022-09-14T13:21:22.296Z,17.62
2022-09-14T13:23:51.207Z,17.53
2022-09-14T13:26:33.400Z,17.45
2022-09-14T13:29:02.707Z,17.44
2022-09-14T13:31:35.572Z,17.44
2022-09-14T13:34:05.515Z,17.48
2022-09-14T13:36:41.104Z,17.53
2022-09-14T13:39:38.336Z,17.55
2022-09-14T13:42:07.108Z,17.59
2022-09-14T13:44:46.994Z,17.68
2022-09-14T13:47:26.160Z,17.82
2022-09-14T13:49:55.535Z,17.94
2022-09-14T13:52:30.980Z,18.00
2022-09-14T13:55:18.683Z,18.04
2022-09-14T13:58:35.804Z,18.09
2022-09-14T14:01:04.588Z,18.11
2022-09-14T14:03:40.772Z,18.12
2022-09-14T14:06:33.035Z,18.12
2022-09-14T14:09:08.219Z,18.11
2022-09-14T14:11:41.866Z,18.08
2022-09-14T14:14:31.410Z,18.02
2022-09-14T14:17:20.196Z,17.93
2022-09-14T14:19:50.429Z,17.84
2022-09-14T14:22:21.491Z,17.79
2022-09-14T14:27:45.178Z,17.81
2022-09-14T14:31:08.532Z,17.79
2022-09-14T14:33:45.577Z,17.77
2022-09-14T14:36:15.142Z,17.71
2022-09-14T14:38:44.389Z,17.72
2022-09-14T14:41:18.795Z,17.70
2022-09-14T14:43:50.211Z,17.60
2022-09-14T14:46:18.986Z,17.80
2022-09-14T14:48:47.326Z,18.18
2022-09-14T14:51:16.025Z,18.42
2022-09-14T14:53:44.962Z,18.46
2022-09-14T14:56:13.947Z,18.43
2022-09-14T14:58:44.956Z,18.39
2022-09-14T15:01:13.841Z,18.36
2022-09-14T15:03:42.143Z,18.30
2022-09-14T15:06:21.161Z,18.20
2022-09-14T15:08:56.989Z,18.14
2022-09-14T15:11:25.343Z,18.08
2022-09-14T15:13:53.552Z,18.01
2022-09-14T15:16:21.948Z,17.96
2022-09-14T15:18:50.184Z,17.91
2022-09-14T15:21:18.348Z,17.87
2022-09-14T15:23:46.639Z,17.85
2022-09-14T15:26:15.095Z,17.83
2022-09-14T15:28:43.396Z,17.83
2022-09-14T15:31:11.987Z,17.82
2022-09-14T15:33:40.345Z,17.78
2022-09-14T15:36:08.716Z,17.74
2022-09-14T15:38:37.474Z,17.71
2022-09-14T15:41:06.046Z,17.66
2022-09-14T15:43:34.652Z,17.61
2022-09-14T15:46:03.738Z,17.56
2022-09-14T15:48:31.960Z,17.55
2022-09-14T15:51:00.935Z,17.54
2022-09-14T15:53:29.184Z,17.50
2022-09-14T15:55:59.596Z,17.48
2022-09-14T15:58:30.598Z,17.47
2022-09-14T16:00:58.858Z,17.45
2022-09-14T16:03:27.104Z,17.40
2022-09-14T16:05:55.256Z,17.35
2022-09-14T16:08:23.632Z,17.35
2022-09-14T16:11:02.419Z,17.33
2022-09-14T16:13:31.123Z,17.32
2022-09-14T16:16:18.759Z,17.28
2022-09-14T16:18:49.375Z,17.24
2022-09-14T16:21:21.499Z,17.21
2022-09-14T16:23:55.288Z,17.18
2022-09-14T16:26:26.507Z,17.15
2022-09-14T16:28:56.204Z,17.12
2022-09-14T16:31:28.612Z,17.10
2022-09-14T16:33:59.463Z,17.05
2022-09-14T16:36:29.790Z,17.03
2022-09-14T16:39:00.607Z,17.01
2022-09-14T16:41:29.773Z,16.99
2022-09-14T16:45:15.856Z,16.96
2022-09-14T16:47:44.811Z,16.91
2022-09-14T16:50:13.559Z,16.88
2022-09-14T16:52:41.795Z,16.84
2022-09-14T16:55:10.172Z,16.79
2022-09-14T16:57:38.391Z,16.75
2022-09-14T17:01:21.545Z,16.70
2022-09-14T17:03:51.691Z,16.63
2022-09-14T17:06:23.243Z,16.58
2022-09-14T17:08:54.725Z,16.53
2022-09-14T17:11:23.431Z,16.50
2022-09-14T17:13:51.800Z,16.44
2022-09-14T17:16:22.112Z,16.42
2022-09-14T17:18:52.358Z,16.38
2022-09-14T17:21:23.197Z,16.36
2022-09-14T17:23:51.923Z,16.33
2022-09-14T17:26:22.247Z,16.29
2022-09-14T17:28:52.529Z,16.24
2022-09-14T17:31:24.015Z,16.20
2022-09-14T17:33:55.457Z,16.15
2022-09-14T17:36:25.758Z,16.07
2022-09-14T17:38:59.107Z,16.03
2022-09-14T17:41:31.067Z,15.99
2022-09-14T17:44:03.107Z,15.93
2022-09-14T17:46:32.484Z,15.87
2022-09-14T17:49:04.952Z,15.81
2022-09-14T17:51:36.833Z,15.77
2022-09-14T17:54:06.965Z,15.71
2022-09-14T17:56:36.927Z,15.66
2022-09-14T17:59:12.146Z,15.61
2022-09-14T18:01:40.758Z,15.54
2022-09-14T18:04:12.668Z,15.49
2022-09-14T18:07:05.353Z,15.45
2022-09-14T18:09:33.985Z,15.41
2022-09-14T18:12:02.561Z,15.35
2022-09-14T18:14:30.943Z,15.31
2022-09-14T18:17:00.055Z,15.26
2022-09-14T18:19:28.544Z,15.19
2022-09-14T18:21:56.816Z,15.14
2022-09-14T18:24:25.143Z,15.03
2022-09-14T18:26:53.356Z,15.06
2022-09-14T18:29:23.278Z,15.02
2022-09-14T18:31:53.404Z,14.96
2022-09-14T18:34:22.635Z,14.91
2022-09-14T18:36:52.112Z,14.86
2022-09-14T18:39:20.865Z,14.72
2022-09-14T18:41:54.073Z,14.77
2022-09-14T18:44:23.513Z,14.75
2022-09-14T18:46:52.010Z,14.71
2022-09-14T18:49:20.552Z,14.69
2022-09-14T18:51:49.164Z,14.65
2022-09-14T18:54:17.521Z,14.60
2022-09-14T18:56:45.834Z,14.56
2022-09-14T18:59:15.464Z,14.53
2022-09-14T19:01:44.342Z,14.49
2022-09-14T19:04:13.149Z,14.43
2022-09-14T19:06:42.322Z,14.38
2022-09-14T19:09:11.586Z,14.31
2022-09-14T19:11:39.962Z,14.24
2022-09-14T19:14:10.965Z,14.18
2022-09-14T19:16:41.014Z,14.13
2022-09-14T19:19:13.148Z,14.08
2022-09-14T19:21:42.829Z,14.04
2022-09-14T19:24:16.787Z,14.01
2022-09-14T19:26:50.710Z,13.97
2022-09-14T19:29:23.844Z,13.92
2022-09-14T19:31:53.088Z,13.89
2022-09-14T19:34:23.364Z,13.87
2022-09-14T19:36:53.957Z,13.84
2022-09-14T19:39:24.103Z,13.81
2022-09-14T19:41:52.721Z,13.78
2022-09-14T19:44:22.742Z,13.76
2022-09-14T19:46:52.033Z,13.75
2022-09-14T19:49:24.282Z,13.73
2022-09-14T19:51:53.769Z,13.73
2022-09-14T19:54:22.548Z,13.70
2022-09-14T19:56:50.870Z,13.67
2022-09-14T19:59:19.138Z,13.66
2022-09-14T20:01:47.861Z,13.64
2022-09-14T20:04:18.268Z,13.54
2022-09-14T20:06:47.926Z,13.63
2022-09-14T20:09:21.894Z,13.61
2022-09-14T20:11:52.618Z,13.59
2022-09-14T20:14:24.648Z,13.57
2022-09-14T20:17:23.694Z,13.54
2022-09-14T20:19:51.909Z,13.54
2022-09-14T20:22:20.183Z,13.51
2022-09-14T20:24:48.521Z,13.48
2022-09-14T20:27:16.703Z,13.47
2022-09-14T20:29:44.925Z,13.46
2022-09-14T20:32:15.394Z,13.45
2022-09-14T20:34:45.552Z,13.46
2022-09-14T20:37:13.819Z,13.49
2022-09-14T20:39:42.755Z,13.51
2022-09-14T20:42:12.639Z,13.52
2022-09-14T20:44:42.447Z,13.52
2022-09-14T20:47:12.642Z,13.55
2022-09-14T20:49:41.886Z,13.57
2022-09-14T20:52:11.478Z,13.59
2022-09-14T20:54:41.309Z,13.62
2022-09-14T20:57:11.373Z,13.62
2022-09-14T20:59:40.707Z,13.63
2022-09-14T21:02:11.089Z,13.62
2022-09-14T21:04:39.622Z,13.62
2022-09-14T21:07:08.118Z,13.51
2022-09-14T21:09:37.766Z,13.60
2022-09-14T21:12:12.019Z,13.60
2022-09-14T21:14:40.626Z,13.62
2022-09-14T21:17:09.315Z,13.62
2022-09-14T21:19:38.494Z,13.61
2022-09-14T21:22:06.785Z,13.62
2022-09-14T21:24:36.362Z,13.62
2022-09-14T21:27:04.940Z,13.63
2022-09-14T21:29:33.226Z,13.61
2022-09-14T21:32:05.597Z,13.58
2022-09-14T21:34:36.585Z,13.55
2022-09-14T21:37:05.406Z,13.52
2022-09-14T21:39:34.227Z,13.50
2022-09-14T21:42:02.473Z,13.50
2022-09-14T21:44:33.616Z,13.49
2022-09-14T21:47:02.873Z,13.49
2022-09-14T21:49:31.929Z,13.48
2022-09-14T21:52:00.253Z,13.48
2022-09-14T21:54:28.568Z,13.49
2022-09-14T21:56:57.087Z,13.48
2022-09-14T21:59:25.959Z,13.47
2022-09-14T22:01:54.635Z,13.46
2022-09-14T22:04:25.194Z,13.44
2022-09-14T22:06:53.903Z,13.42
2022-09-14T22:09:24.474Z,13.41
2022-09-14T22:11:53.081Z,13.40
2022-09-14T22:14:24.206Z,13.39
2022-09-14T22:16:53.262Z,13.39
2022-09-14T22:19:27.784Z,13.30
2022-09-14T22:21:56.876Z,13.39
2022-09-14T22:24:36.998Z,13.38
2022-09-14T22:27:08.655Z,13.37
2022-09-14T22:29:38.416Z,13.35
2022-09-14T22:32:12.162Z,13.35
2022-09-14T22:34:41.999Z,13.35
2022-09-14T22:37:11.028Z,13.35
2022-09-14T22:39:39.524Z,13.36
2022-09-14T22:43:00.794Z,13.36
2022-09-14T22:45:30.158Z,13.38
2022-09-14T22:47:58.478Z,13.40
2022-09-14T22:51:19.549Z,13.40
2022-09-14T22:53:48.065Z,13.40
2022-09-14T22:56:18.618Z,13.39
2022-09-14T22:58:47.981Z,13.38
2022-09-14T23:01:42.616Z,13.38
2022-09-14T23:04:13.400Z,13.37
2022-09-14T23:06:47.493Z,13.36
2022-09-14T23:09:20.785Z,13.37
2022-09-14T23:12:13.697Z,13.37
2022-09-14T23:14:41.889Z,13.38
2022-09-14T23:17:10.737Z,13.39
2022-09-14T23:20:04.153Z,13.40
2022-09-14T23:22:32.717Z,13.42
2022-09-14T23:25:06.801Z,13.44
2022-09-14T23:27:35.421Z,13.46
2022-09-14T23:31:19.570Z,13.48
2022-09-14T23:33:52.506Z,13.51
2022-09-14T23:36:22.497Z,13.52
2022-09-14T23:38:51.288Z,13.53
2022-09-14T23:41:21.340Z,13.54
2022-09-14T23:43:49.998Z,13.55
2022-09-14T23:46:19.366Z,13.57
2022-09-14T23:48:48.110Z,13.57
2022-09-14T23:51:43.727Z,13.57
2022-09-14T23:54:12.482Z,13.58
2022-09-14T23:56:41.172Z,13.60
2022-09-14T23:59:12.657Z,13.61
